KPOF/POF METAR and TAF weather

Enter ICAO airport designator
Station Type Date Time Source
KPOF METAR 2018/12/11 19:53 UTC NOAA

KPOF 111953Z AUTO 20013G21KT 10SM CLR 09/M02 A3018 RMK AO2 SLP225 T00941017


Station Type Date Time Source
KPOF Decoded METAR 2018/12/11 19:53 UTC NOAA

POPLAR BLUFF MUN AIRPORT, MO, United States (KPOF) 36-46N 090-19W 100M
Dec 11, 2018 - 02:53 PM EST / 2018.12.11 1953 UTC
Wind: from the SSW (200 degrees) at 15 MPH (13 KT) gusting to 24 MPH (21 KT):0
Visibility: 10 mile(s):0
Sky conditions: clear
Temperature: 48.9 F (9.4 C)
Dew Point: 28.9 F (-1.7 C)
Relative Humidity: 45%
Pressure (altimeter): 30.18 in. Hg (1022 hPa)
ob: KPOF 111953Z AUTO 20013G21KT 10SM CLR 09/M02 A3018 RMK AO2 SLP225 T00941017
cycle: 20

Station Type Date Time Source
KPOF TAF UTC NOAA

Error!


Example: see airport list